Time;durP1;ratioP1;P1;durP2;ratioP2;P2;SDS_P1;SDS_P2;PMS_P1;PMS_P2;Temp;Humidity;BMP_temperature;BMP_pressure;BME280_temperature;BME280_humidity;BME280_pressure;Samples;Min_cycle;Max_cycle;Signal;HPM_P1;HPM_P2
2023/12/23 00:00:37;;;;;;;6.68;0.52;;;6.10;99.90;;;;;;5009884;28;20036;-90
2023/12/23 00:03:03;;;;;;;10.25;2.42;;;6.10;99.90;;;;;;4992793;28;20455;-90
2023/12/23 00:05:29;;;;;;;5.43;1.30;;;6.10;99.90;;;;;;4994127;28;20584;-89
2023/12/23 00:07:54;;;;;;;7.88;1.30;;;6.00;99.90;;;;;;5010131;28;20040;-89
2023/12/23 00:10:20;;;;;;;7.18;1.20;;;6.10;99.90;;;;;;5010283;28;20042;-89
2023/12/23 00:12:45;;;;;;;12.65;2.10;;;6.10;99.90;;;;;;4994095;28;20080;-89
2023/12/23 00:15:11;;;;;;;8.65;1.55;;;6.10;99.90;;;;;;5009145;28;20511;-89
2023/12/23 00:17:37;;;;;;;9.38;1.65;;;6.10;99.90;;;;;;5010010;28;20051;-90
2023/12/23 00:20:02;;;;;;;6.05;2.58;;;6.10;99.90;;;;;;4993664;28;20045;-88
2023/12/23 00:22:28;;;;;;;3.67;0.98;;;6.10;99.90;;;;;;5009458;28;20073;-89
2023/12/23 00:24:54;;;;;;;2.88;1.10;;;6.20;99.90;;;;;;4993531;28;20088;-89
2023/12/23 00:27:19;;;;;;;5.93;1.17;;;6.20;99.90;;;;;;4993230;28;20046;-89
2023/12/23 00:29:45;;;;;;;4.43;1.48;;;6.10;99.90;;;;;;4994191;28;20400;-89
2023/12/23 00:32:10;;;;;;;5.13;0.73;;;6.10;99.90;;;;;;4993679;28;20049;-89
2023/12/23 00:34:36;;;;;;;5.38;0.80;;;6.10;99.90;;;;;;5010460;28;20056;-90
2023/12/23 00:37:01;;;;;;;3.95;1.58;;;6.20;99.90;;;;;;4993010;28;20048;-88
2023/12/23 00:39:27;;;;;;;5.30;1.75;;;6.20;99.90;;;;;;4992721;28;20038;-89
2023/12/23 00:41:53;;;;;;;8.00;1.48;;;6.20;99.90;;;;;;5010163;28;20042;-89
2023/12/23 00:44:18;;;;;;;3.80;0.80;;;6.20;99.90;;;;;;4993126;28;20104;-88
2023/12/23 00:46:44;;;;;;;6.85;0.85;;;6.20;99.90;;;;;;4993152;28;20046;-89
2023/12/23 00:49:09;;;;;;;2.63;0.57;;;6.30;99.90;;;;;;5009174;28;20156;-89
2023/12/23 00:51:36;;;;;;;6.88;1.35;;;6.30;99.90;;;;;;4993018;28;20136;-90
2023/12/23 00:54:02;;;;;;;4.50;1.63;;;6.30;99.90;;;;;;4992893;28;20153;-90
2023/12/23 00:56:27;;;;;;;4.53;0.98;;;6.30;99.90;;;;;;5009147;28;20033;-89
2023/12/23 00:58:53;;;;;;;3.13;1.45;;;6.30;99.90;;;;;;5009408;28;20045;-90
2023/12/23 01:01:19;;;;;;;3.92;0.75;;;6.30;99.90;;;;;;4993354;28;20046;-90
2023/12/23 01:03:44;;;;;;;7.00;1.63;;;6.40;99.90;;;;;;4992360;28;20048;-90
2023/12/23 01:06:10;;;;;;;4.95;0.85;;;6.40;99.90;;;;;;4993357;28;20038;-89
2023/12/23 01:08:36;;;;;;;3.50;0.77;;;6.40;99.90;;;;;;5008791;28;20041;-90
2023/12/23 01:11:01;;;;;;;3.10;0.70;;;6.40;99.90;;;;;;4993538;28;20042;-90
2023/12/23 01:13:27;;;;;;;2.92;0.47;;;6.40;99.90;;;;;;4992449;28;20076;-90
2023/12/23 01:15:53;;;;;;;7.53;1.17;;;6.40;99.90;;;;;;5010064;28;20044;-90
2023/12/23 01:18:18;;;;;;;1.65;0.90;;;6.50;99.90;;;;;;4997637;28;20037;-89
2023/12/23 01:20:44;;;;;;;9.85;0.88;;;6.40;99.90;;;;;;4996868;28;20492;-90
2023/12/23 01:23:10;;;;;;;1.58;0.32;;;6.50;99.90;;;;;;5013072;28;20038;-89
2023/12/23 01:25:36;;;;;;;6.82;2.05;;;6.50;99.90;;;;;;5014011;28;20554;-89
2023/12/23 01:28:04;;;;;;;4.97;0.88;;;6.50;99.90;;;;;;4996295;28;20445;-90
2023/12/23 01:30:33;;;;;;;5.07;0.98;;;6.50;99.90;;;;;;5013839;28;20041;-89
2023/12/23 01:32:59;;;;;;;4.03;0.95;;;6.50;99.90;;;;;;5012392;28;20047;-89
2023/12/23 01:35:25;;;;;;;3.50;0.85;;;6.50;99.90;;;;;;5012886;28;20479;-89
2023/12/23 01:37:51;;;;;;;3.83;0.75;;;6.60;99.90;;;;;;4996195;28;20052;-89
2023/12/23 01:40:17;;;;;;;5.30;0.63;;;6.60;99.90;;;;;;5012444;28;20049;-89
2023/12/23 01:42:42;;;;;;;3.53;0.60;;;6.60;99.90;;;;;;4996495;28;20048;-89
2023/12/23 01:45:09;;;;;;;3.55;1.33;;;6.70;99.90;;;;;;5011940;28;20038;-89
2023/12/23 01:47:39;;;;;;;1.30;0.77;;;6.60;99.90;;;;;;5012683;28;20111;-89
2023/12/23 01:50:06;;;;;;;1.45;0.57;;;6.70;99.90;;;;;;5013467;28;20626;-89
2023/12/23 01:52:33;;;;;;;8.50;0.68;;;6.70;99.90;;;;;;4995237;28;20042;-90
2023/12/23 01:54:59;;;;;;;4.22;0.88;;;6.70;99.90;;;;;;4996284;28;20038;-90
2023/12/23 01:57:24;;;;;;;7.75;1.65;;;6.70;99.90;;;;;;5011747;28;20050;-89
2023/12/23 01:59:50;;;;;;;7.88;1.33;;;6.70;99.90;;;;;;4996003;28;20049;-89
2023/12/23 02:02:17;;;;;;;6.85;2.33;;;6.60;99.90;;;;;;5012169;28;20057;-89
2023/12/23 02:04:43;;;;;;;5.32;1.05;;;6.60;99.90;;;;;;4995482;28;20041;-89
2023/12/23 02:07:08;;;;;;;9.10;1.33;;;6.60;99.90;;;;;;4995680;28;20033;-90
2023/12/23 02:09:35;;;;;;;9.48;1.63;;;6.60;99.90;;;;;;5012843;28;20044;-90
2023/12/23 02:12:35;;;;;;;5.47;0.77;;;6.60;99.90;;;;;;4996148;28;20382;-89
2023/12/23 02:15:07;;;;;;;7.78;0.68;;;6.60;99.90;;;;;;4961849;28;20423;-90
2023/12/23 02:17:33;;;;;;;2.38;0.63;;;6.60;99.90;;;;;;5012043;28;20036;-90
2023/12/23 02:19:58;;;;;;;5.70;1.05;;;6.60;99.90;;;;;;4994534;28;20098;-89
2023/12/23 02:22:24;;;;;;;3.90;1.38;;;6.60;99.90;;;;;;4996058;28;20176;-89
2023/12/23 02:24:50;;;;;;;6.45;1.30;;;6.60;99.90;;;;;;5011221;28;20105;-89
2023/12/23 02:27:21;;;;;;;4.55;0.43;;;6.60;99.90;;;;;;4995163;28;20053;-90
2023/12/23 02:29:48;;;;;;;9.27;1.10;;;6.60;99.90;;;;;;4995398;28;20501;-90
2023/12/23 02:32:15;;;;;;;2.05;0.50;;;6.70;99.90;;;;;;4995276;28;20090;-90
2023/12/23 02:34:41;;;;;;;1.27;0.20;;;6.70;99.90;;;;;;4995837;28;20581;-90
2023/12/23 02:37:07;;;;;;;8.20;0.73;;;6.70;99.90;;;;;;4994966;28;20080;-90
2023/12/23 02:39:32;;;;;;;9.80;1.25;;;6.70;99.90;;;;;;4995193;28;20042;-90
2023/12/23 02:41:58;;;;;;;7.43;1.20;;;6.60;99.90;;;;;;4995309;28;20091;-90
2023/12/23 02:44:24;;;;;;;3.25;1.02;;;6.60;99.90;;;;;;4994295;28;20509;-90
2023/12/23 02:46:49;;;;;;;3.22;0.65;;;6.60;99.90;;;;;;4995582;28;20044;-90
2023/12/23 02:49:15;;;;;;;6.22;0.73;;;6.60;99.90;;;;;;5010547;28;20041;-90
2023/12/23 02:51:41;;;;;;;5.68;0.90;;;6.60;99.90;;;;;;4994431;28;20042;-90
2023/12/23 02:54:06;;;;;;;6.50;1.00;;;6.60;99.90;;;;;;4994334;28;20053;-90
2023/12/23 02:56:32;;;;;;;4.68;0.52;;;6.60;99.90;;;;;;5010343;28;20080;-90
2023/12/23 02:58:57;;;;;;;4.43;1.38;;;6.50;99.90;;;;;;4993822;28;20417;-90
2023/12/23 03:01:23;;;;;;;7.25;1.52;;;6.50;99.90;;;;;;4993246;28;20419;-90
2023/12/23 03:03:49;;;;;;;3.30;0.70;;;6.50;99.90;;;;;;5010357;28;20099;-90
2023/12/23 03:06:15;;;;;;;7.15;1.83;;;6.50;99.90;;;;;;4994387;28;20040;-90
2023/12/23 03:08:41;;;;;;;5.25;0.65;;;6.50;99.90;;;;;;5010501;28;20457;-89
2023/12/23 03:11:07;;;;;;;3.53;0.57;;;6.50;99.90;;;;;;4993133;28;20494;-88
2023/12/23 03:13:33;;;;;;;4.95;0.50;;;6.50;99.90;;;;;;4994362;28;20128;-89
2023/12/23 03:15:59;;;;;;;3.25;0.45;;;6.40;99.90;;;;;;4994848;28;20603;-89
2023/12/23 03:18:24;;;;;;;0.43;0.20;;;6.40;99.90;;;;;;5010229;28;20596;-89
2023/12/23 03:20:50;;;;;;;1.80;0.75;;;6.40;99.90;;;;;;4995304;28;20042;-90
2023/12/23 03:23:16;;;;;;;5.75;0.52;;;6.40;99.90;;;;;;4993701;28;20073;-90
2023/12/23 03:25:42;;;;;;;4.70;0.77;;;6.30;99.90;;;;;;4994490;28;20042;-89
2023/12/23 03:28:08;;;;;;;5.97;0.98;;;6.30;99.90;;;;;;4994382;28;20056;-90
2023/12/23 03:30:33;;;;;;;3.95;0.70;;;6.30;99.90;;;;;;5010527;28;20041;-90
2023/12/23 03:32:59;;;;;;;3.13;0.77;;;6.30;99.90;;;;;;4994577;28;20048;-89
2023/12/23 03:35:24;;;;;;;5.68;1.38;;;6.20;99.90;;;;;;4994917;28;20060;-90
2023/12/23 03:37:50;;;;;;;2.65;0.45;;;6.20;99.90;;;;;;5010792;28;20037;-89
2023/12/23 03:40:16;;;;;;;2.97;0.43;;;6.20;99.90;;;;;;5010834;28;20053;-89
2023/12/23 03:42:41;;;;;;;6.88;1.00;;;6.20;99.90;;;;;;4994076;28;20045;-89
2023/12/23 03:45:07;;;;;;;5.53;1.38;;;6.10;99.90;;;;;;5010246;28;20041;-89
2023/12/23 03:47:34;;;;;;;9.13;0.80;;;6.10;99.90;;;;;;4994225;28;20033;-89
2023/12/23 03:50:00;;;;;;;3.15;0.82;;;6.10;99.90;;;;;;4994347;28;20080;-89
2023/12/23 03:52:26;;;;;;;7.03;0.65;;;6.10;99.90;;;;;;4993905;28;20048;-89
2023/12/23 03:54:51;;;;;;;4.90;0.60;;;6.10;99.90;;;;;;5009513;28;20030;-89
2023/12/23 03:57:17;;;;;;;2.13;0.68;;;6.10;99.90;;;;;;4994090;28;20467;-89
2023/12/23 03:59:43;;;;;;;8.02;1.00;;;6.10;99.90;;;;;;4993910;28;20037;-88
2023/12/23 04:02:08;;;;;;;5.82;1.50;;;6.10;99.90;;;;;;5010806;28;20046;-89
2023/12/23 04:04:40;;;;;;;5.47;1.00;;;6.10;99.90;;;;;;4994375;28;20113;-89
2023/12/23 04:07:06;;;;;;;4.82;1.13;;;6.20;99.90;;;;;;5009838;28;20037;-89
2023/12/23 04:09:32;;;;;;;3.53;0.30;;;6.20;99.90;;;;;;4994307;28;20039;-89
2023/12/23 04:11:58;;;;;;;3.88;0.75;;;6.20;99.90;;;;;;4994377;28;20120;-89
2023/12/23 04:14:23;;;;;;;5.03;0.65;;;6.20;99.90;;;;;;4992951;28;20124;-89
2023/12/23 04:16:49;;;;;;;8.40;1.65;;;6.20;99.90;;;;;;4994444;28;20045;-89
2023/12/23 04:19:14;;;;;;;3.58;0.85;;;6.20;99.90;;;;;;5010241;28;20498;-89
2023/12/23 04:21:40;;;;;;;8.95;1.13;;;6.20;99.90;;;;;;4994037;28;20029;-89
2023/12/23 04:24:06;;;;;;;4.57;1.13;;;6.20;99.90;;;;;;4993029;28;20125;-89
2023/12/23 04:26:33;;;;;;;3.72;0.88;;;6.30;99.90;;;;;;4993047;28;20045;-89
2023/12/23 04:28:59;;;;;;;3.20;0.63;;;6.30;99.90;;;;;;4994142;28;20045;-89
2023/12/23 04:31:24;;;;;;;1.63;0.50;;;6.30;99.90;;;;;;4993925;28;20033;-89
2023/12/23 04:33:50;;;;;;;3.30;0.73;;;6.30;99.90;;;;;;5009857;28;20064;-89
2023/12/23 04:36:17;;;;;;;2.58;0.73;;;6.30;99.90;;;;;;4994327;28;20043;-89
2023/12/23 04:38:44;;;;;;;5.10;0.98;;;6.30;99.90;;;;;;5009727;28;20382;-89
2023/12/23 04:41:09;;;;;;;10.98;1.13;;;6.30;99.90;;;;;;5010526;28;20559;-90
2023/12/23 04:43:35;;;;;;;3.40;0.90;;;6.30;99.90;;;;;;4993458;28;20132;-90
2023/12/23 04:46:02;;;;;;;2.08;0.50;;;6.30;99.90;;;;;;4992816;28;20037;-89
2023/12/23 04:48:28;;;;;;;1.55;0.45;;;6.30;99.90;;;;;;4993813;28;20030;-89
2023/12/23 04:50:54;;;;;;;3.40;0.55;;;6.30;99.90;;;;;;5010209;28;20037;-89
2023/12/23 04:53:23;;;;;;;4.05;1.00;;;6.30;99.90;;;;;;5013833;28;20040;-89
2023/12/23 04:55:49;;;;;;;3.20;0.63;;;6.30;99.90;;;;;;4997222;28;20559;-89
2023/12/23 04:58:14;;;;;;;1.23;0.50;;;6.40;99.90;;;;;;4997301;28;20092;-89
2023/12/23 05:00:40;;;;;;;1.85;0.40;;;6.40;99.90;;;;;;4998058;28;20403;-90
2023/12/23 05:03:05;;;;;;;3.28;0.50;;;6.30;99.90;;;;;;5012532;28;20037;-89
2023/12/23 05:05:31;;;;;;;1.95;0.50;;;6.40;99.90;;;;;;5014068;28;20581;-89
2023/12/23 05:07:57;;;;;;;1.55;0.70;;;6.40;99.90;;;;;;4997205;28;20508;-90
2023/12/23 05:10:22;;;;;;;3.53;0.70;;;6.40;99.90;;;;;;4997368;28;20037;-89
2023/12/23 05:12:48;;;;;;;2.05;0.50;;;6.50;99.90;;;;;;5013090;28;20092;-89
2023/12/23 05:15:14;;;;;;;3.75;0.70;;;6.40;99.90;;;;;;5012832;28;20053;-89
2023/12/23 05:17:39;;;;;;;0.50;0.40;;;6.40;99.90;;;;;;4997240;28;20492;-89
2023/12/23 05:20:07;;;;;;;0.22;0.22;;;6.40;99.90;;;;;;4997009;28;20050;-89
2023/12/23 05:22:33;;;;;;;1.27;0.45;;;6.50;99.90;;;;;;5012717;28;20131;-89
2023/12/23 05:24:59;;;;;;;1.38;0.50;;;6.50;99.90;;;;;;4996163;28;20100;-89
2023/12/23 05:27:24;;;;;;;2.05;0.60;;;6.50;99.90;;;;;;4996139;28;20049;-89
2023/12/23 05:29:50;;;;;;;1.05;0.50;;;6.50;99.90;;;;;;4996719;28;20037;-89
2023/12/23 05:32:16;;;;;;;1.52;0.77;;;6.50;99.90;;;;;;4996254;28;20140;-89
2023/12/23 05:34:42;;;;;;;1.83;0.70;;;6.50;99.90;;;;;;4996573;28;20033;-89
2023/12/23 05:37:07;;;;;;;2.00;0.70;;;6.50;99.90;;;;;;4997477;28;20134;-88
2023/12/23 05:39:33;;;;;;;1.48;0.60;;;6.60;99.90;;;;;;4996408;28;20408;-90
2023/12/23 05:41:59;;;;;;;0.98;0.40;;;6.50;99.90;;;;;;4996436;28;20567;-89
2023/12/23 05:44:25;;;;;;;2.00;0.50;;;6.60;99.90;;;;;;4996871;28;20107;-88
2023/12/23 05:46:51;;;;;;;1.33;0.50;;;6.60;99.90;;;;;;4996460;28;20040;-89
2023/12/23 05:49:16;;;;;;;0.30;0.30;;;6.70;99.90;;;;;;5015223;28;20041;-89
2023/12/23 05:51:42;;;;;;;1.13;0.47;;;6.70;99.90;;;;;;4997027;28;20030;-89
2023/12/23 05:54:08;;;;;;;0.15;0.15;;;6.90;99.90;;;;;;4996605;28;20033;-88
2023/12/23 05:56:33;;;;;;;1.00;0.47;;;7.10;99.90;;;;;;4996301;28;20412;-89
2023/12/23 05:58:59;;;;;;;2.80;0.75;;;7.30;99.90;;;;;;4996095;28;20037;-88
2023/12/23 06:01:25;;;;;;;0.28;0.25;;;7.60;99.90;;;;;;4996383;28;20037;-88
2023/12/23 06:03:50;;;;;;;2.38;0.85;;;8.00;99.90;;;;;;4995947;28;20095;-89
2023/12/23 06:06:16;;;;;;;1.30;0.40;;;8.20;99.90;;;;;;4996119;28;20748;-90
2023/12/23 06:08:41;;;;;;;4.18;0.98;;;8.40;99.90;;;;;;4994561;28;20124;-89
2023/12/23 06:11:07;;;;;;;5.22;0.90;;;8.50;99.90;;;;;;4996294;28;20047;-90
2023/12/23 06:13:33;;;;;;;1.80;0.80;;;8.60;99.90;;;;;;4995740;28;20120;-90
2023/12/23 06:16:07;;;;;;;4.70;1.25;;;8.80;99.90;;;;;;4996289;28;20497;-89
2023/12/23 06:18:33;;;;;;;2.17;0.70;;;8.90;99.90;;;;;;4995798;28;20067;-90
2023/12/23 06:20:59;;;;;;;2.78;1.25;;;8.90;99.90;;;;;;4995369;28;20046;-89
2023/12/23 06:23:24;;;;;;;1.98;0.85;;;9.00;99.90;;;;;;4995447;28;20393;-89
2023/12/23 06:25:50;;;;;;;2.90;0.80;;;9.00;99.90;;;;;;5012159;28;20404;-90
2023/12/23 06:28:16;;;;;;;3.20;0.80;;;9.00;99.90;;;;;;4988024;28;20512;-90
2023/12/23 06:30:42;;;;;;;4.47;0.80;;;9.00;99.90;;;;;;5011962;28;20044;-90
2023/12/23 06:33:07;;;;;;;4.97;1.67;;;9.10;99.90;;;;;;4995769;28;20482;-90
2023/12/23 06:35:33;;;;;;;3.80;1.05;;;9.10;99.90;;;;;;4995517;28;20041;-89
2023/12/23 06:37:59;;;;;;;3.50;1.50;;;9.10;99.90;;;;;;4995653;28;20033;-89
2023/12/23 06:40:27;;;;;;;3.08;0.88;;;9.10;99.90;;;;;;5029651;28;20099;-90
2023/12/23 06:42:52;;;;;;;4.78;0.95;;;9.20;99.90;;;;;;5028591;28;20512;-90
2023/12/23 06:45:18;;;;;;;4.45;0.85;;;9.20;99.90;;;;;;4995297;28;20073;-90
2023/12/23 06:47:44;;;;;;;4.22;1.13;;;9.20;99.90;;;;;;4994789;28;20520;-90
2023/12/23 06:50:09;;;;;;;4.13;1.38;;;9.20;99.90;;;;;;4995772;28;20691;-89
2023/12/23 06:52:35;;;;;;;3.33;1.02;;;9.20;99.90;;;;;;4994456;28;20572;-90
2023/12/23 06:55:01;;;;;;;3.25;1.08;;;9.20;99.90;;;;;;5010627;28;20110;-90
2023/12/23 06:57:27;;;;;;;5.65;0.88;;;9.20;99.90;;;;;;4994021;28;20045;-89
2023/12/23 06:59:52;;;;;;;3.53;0.90;;;9.30;99.90;;;;;;4994189;28;20045;-89
2023/12/23 07:02:18;;;;;;;4.97;1.27;;;9.30;99.90;;;;;;5010971;28;20428;-89
2023/12/23 07:04:44;;;;;;;7.50;1.95;;;9.30;99.90;;;;;;4994837;28;20073;-90
2023/12/23 07:07:10;;;;;;;4.05;0.77;;;9.30;99.90;;;;;;4994454;28;20060;-90
2023/12/23 07:09:35;;;;;;;5.13;1.67;;;9.30;99.90;;;;;;4995127;28;20077;-90
2023/12/23 07:12:01;;;;;;;4.00;1.13;;;9.30;99.90;;;;;;4995404;28;20125;-90
2023/12/23 07:14:27;;;;;;;7.70;1.08;;;9.30;99.90;;;;;;4994153;28;20120;-89
2023/12/23 07:16:52;;;;;;;4.70;1.55;;;9.30;99.90;;;;;;5011827;28;20041;-89
2023/12/23 07:19:18;;;;;;;4.78;1.40;;;9.40;99.90;;;;;;4994724;28;20471;-90
2023/12/23 07:21:44;;;;;;;6.78;1.73;;;9.40;99.90;;;;;;5028050;28;20025;-90
2023/12/23 07:24:10;;;;;;;3.00;0.98;;;9.40;99.90;;;;;;4994149;28;20037;-90
2023/12/23 07:26:36;;;;;;;5.93;1.73;;;9.40;99.90;;;;;;4994219;28;20084;-90
2023/12/23 07:29:02;;;;;;;5.03;1.35;;;9.40;99.90;;;;;;4994656;28;20536;-90
2023/12/23 07:31:32;;;;;;;9.32;1.92;;;9.40;99.90;;;;;;5010550;28;20044;-89
2023/12/23 07:34:00;;;;;;;7.47;1.20;;;9.40;99.90;;;;;;5010257;28;20052;-91
2023/12/23 07:36:26;;;;;;;3.78;1.52;;;9.40;99.90;;;;;;5011094;28;20531;-90
2023/12/23 07:38:51;;;;;;;4.53;1.25;;;9.40;99.90;;;;;;5010835;28;20029;-89
2023/12/23 07:41:17;;;;;;;3.38;1.33;;;9.40;99.90;;;;;;4994607;28;20049;-89
2023/12/23 07:43:42;;;;;;;4.68;1.17;;;9.40;99.90;;;;;;4993683;28;20198;-89
2023/12/23 07:46:08;;;;;;;8.10;1.35;;;9.40;99.90;;;;;;5011250;28;20038;-90
2023/12/23 07:48:34;;;;;;;3.40;1.10;;;9.40;99.90;;;;;;5010633;28;20411;-90
2023/12/23 07:51:08;;;;;;;10.20;1.35;;;9.40;99.90;;;;;;4993692;28;20029;-89
2023/12/23 07:53:34;;;;;;;7.10;1.73;;;9.40;99.90;;;;;;4993898;28;20053;-90
2023/12/23 07:56:00;;;;;;;7.07;0.90;;;9.40;99.90;;;;;;5009344;28;20413;-90
2023/12/23 07:58:26;;;;;;;7.07;1.30;;;9.50;99.90;;;;;;4994103;28;20610;-90
2023/12/23 08:00:53;;;;;;;5.38;0.80;;;9.50;99.90;;;;;;5009836;28;20045;-90
2023/12/23 08:03:18;;;;;;;3.80;0.90;;;9.50;99.90;;;;;;5010107;28;20041;-91
2023/12/23 08:05:44;;;;;;;4.10;0.95;;;9.50;99.90;;;;;;4994490;28;20172;-90
2023/12/23 08:08:10;;;;;;;3.25;0.88;;;9.50;99.90;;;;;;4993023;28;20091;-90
2023/12/23 08:10:38;;;;;;;5.07;1.45;;;9.50;99.90;;;;;;5010782;28;20044;-90
2023/12/23 08:13:03;;;;;;;16.75;1.27;;;9.50;99.90;;;;;;4993968;28;20041;-90
2023/12/23 08:15:29;;;;;;;5.25;1.65;;;9.50;99.90;;;;;;4993407;28;20037;-90
2023/12/23 08:17:55;;;;;;;8.98;2.17;;;9.50;99.90;;;;;;4994015;28;20459;-90
2023/12/23 08:20:20;;;;;;;4.13;1.05;;;9.50;99.90;;;;;;5027092;28;20041;-90
2023/12/23 08:22:46;;;;;;;8.07;1.70;;;9.50;99.90;;;;;;5010098;28;20042;-91
2023/12/23 08:25:12;;;;;;;10.82;1.85;;;9.50;99.90;;;;;;4993686;28;20427;-91
2023/12/23 08:27:38;;;;;;;11.05;2.47;;;9.50;99.90;;;;;;4997266;28;20040;-91
2023/12/23 08:30:06;;;;;;;6.40;1.33;;;9.50;99.90;;;;;;4997439;28;20045;-90
2023/12/23 08:32:31;;;;;;;8.57;2.20;;;9.40;99.90;;;;;;4997048;28;20566;-90
2023/12/23 08:34:57;;;;;;;12.50;1.98;;;9.50;99.90;;;;;;4997718;28;20049;-89
2023/12/23 08:37:23;;;;;;;4.93;1.48;;;9.40;99.90;;;;;;4996529;28;20045;-89
2023/12/23 08:39:50;;;;;;;7.10;1.55;;;9.40;99.90;;;;;;4997148;28;20034;-89
2023/12/23 08:42:15;;;;;;;10.82;1.65;;;9.40;99.90;;;;;;4996477;28;20076;-90
2023/12/23 08:44:41;;;;;;;7.03;1.63;;;9.50;99.90;;;;;;4997004;28;20065;-89
2023/12/23 08:47:07;;;;;;;4.30;1.05;;;9.50;99.90;;;;;;4997683;28;20030;-89
2023/12/23 08:49:33;;;;;;;13.05;2.40;;;9.40;99.90;;;;;;4996867;28;20091;-90
2023/12/23 08:51:58;;;;;;;6.07;0.90;;;9.30;99.90;;;;;;4997550;28;20037;-89
2023/12/23 08:54:24;;;;;;;1.67;0.52;;;9.30;99.90;;;;;;5013574;28;20037;-89
2023/12/23 08:56:50;;;;;;;2.30;0.60;;;9.10;99.90;;;;;;4997347;28;20496;-90
2023/12/23 08:59:16;;;;;;;1.40;0.50;;;9.00;99.90;;;;;;4997543;28;20117;-91
2023/12/23 09:01:43;;;;;;;1.00;0.60;;;8.80;99.90;;;;;;4996992;28;20148;-90
2023/12/23 09:04:09;;;;;;;1.25;0.63;;;8.60;99.90;;;;;;5013735;28;20096;-90
2023/12/23 09:06:35;;;;;;;1.00;0.30;;;8.50;99.90;;;;;;4998150;28;20065;-90
2023/12/23 09:09:01;;;;;;;1.38;0.40;;;8.40;99.90;;;;;;5013210;28;20042;-90
2023/12/23 09:11:27;;;;;;;0.75;0.20;;;8.30;99.90;;;;;;4997198;28;20128;-90
2023/12/23 09:13:52;;;;;;;1.30;0.40;;;8.20;99.90;;;;;;5013465;28;20041;-90
2023/12/23 09:16:18;;;;;;;1.45;0.40;;;8.10;99.90;;;;;;5013032;28;20095;-90
2023/12/23 09:18:44;;;;;;;1.98;0.60;;;8.10;99.90;;;;;;5013875;28;20057;-90
2023/12/23 09:21:09;;;;;;;1.83;0.60;;;8.10;99.90;;;;;;5010827;28;20102;-90
2023/12/23 09:23:35;;;;;;;5.50;1.23;;;8.10;99.90;;;;;;5026836;28;20030;-89
2023/12/23 09:26:01;;;;;;;0.68;0.50;;;8.10;99.90;;;;;;5020956;28;20116;-90
2023/12/23 09:28:26;;;;;;;0.95;0.38;;;8.10;99.90;;;;;;5011570;28;20045;-89
2023/12/23 09:30:52;;;;;;;0.52;0.22;;;8.10;99.90;;;;;;5022635;28;20602;-90
2023/12/23 09:33:18;;;;;;;3.38;0.57;;;8.10;99.90;;;;;;5005861;28;20037;-90
2023/12/23 09:35:43;;;;;;;2.28;0.70;;;8.10;99.90;;;;;;5013412;28;20045;-89
2023/12/23 09:38:10;;;;;;;1.88;0.55;;;8.00;99.90;;;;;;4996540;28;20057;-89
2023/12/23 09:40:37;;;;;;;1.02;0.43;;;8.00;99.90;;;;;;4995754;28;20033;-89
2023/12/23 09:43:03;;;;;;;0.75;0.30;;;8.00;99.90;;;;;;4996215;28;20038;-89
2023/12/23 09:45:30;;;;;;;1.98;0.68;;;8.00;99.90;;;;;;4996809;28;20030;-89
2023/12/23 09:47:57;;;;;;;3.35;0.65;;;8.00;99.90;;;;;;4995922;28;20488;-89
2023/12/23 09:50:22;;;;;;;1.92;0.43;;;8.00;99.90;;;;;;4995968;28;20040;-89
2023/12/23 09:52:52;;;;;;;2.72;0.63;;;8.00;99.90;;;;;;5012349;28;20045;-89
2023/12/23 09:55:18;;;;;;;2.80;0.80;;;8.00;99.90;;;;;;5005302;28;20690;-90
2023/12/23 09:57:44;;;;;;;4.28;0.90;;;8.00;99.90;;;;;;4995620;28;20153;-89
2023/12/23 10:00:11;;;;;;;3.55;0.70;;;8.00;99.90;;;;;;5011524;28;20694;-89
2023/12/23 10:02:36;;;;;;;2.45;0.65;;;8.10;99.90;;;;;;5012346;28;20041;-89
2023/12/23 10:05:02;;;;;;;8.30;1.35;;;8.10;99.90;;;;;;4995779;28;20040;-90
2023/12/23 10:07:28;;;;;;;8.55;1.30;;;8.20;99.90;;;;;;4996165;28;20040;-89
2023/12/23 10:09:53;;;;;;;10.90;1.33;;;8.20;99.90;;;;;;5012731;28;20076;-89
2023/12/23 10:12:20;;;;;;;7.03;1.23;;;8.30;99.90;;;;;;4995678;28;20029;-90
2023/12/23 10:14:48;;;;;;;5.07;0.70;;;8.30;99.90;;;;;;4994872;28;20124;-89
2023/12/23 10:17:14;;;;;;;4.72;0.63;;;8.30;99.90;;;;;;5012108;28;20026;-90
2023/12/23 10:19:39;;;;;;;6.43;1.55;;;8.30;99.90;;;;;;4995554;28;20408;-89
2023/12/23 10:22:06;;;;;;;9.75;1.70;;;8.30;99.90;;;;;;4995994;28;20037;-90
2023/12/23 10:24:32;;;;;;;5.20;0.85;;;8.30;99.90;;;;;;4994821;28;20996;-89
2023/12/23 10:26:59;;;;;;;6.72;1.65;;;8.30;99.90;;;;;;4995243;28;20052;-89
2023/12/23 10:29:29;;;;;;;3.85;1.27;;;8.30;99.90;;;;;;4995452;28;20098;-90
2023/12/23 10:31:58;;;;;;;4.78;1.20;;;8.40;99.90;;;;;;4995452;28;20034;-89
2023/12/23 10:34:29;;;;;;;14.38;1.95;;;8.40;99.90;;;;;;5011329;28;20037;-90
2023/12/23 10:36:57;;;;;;;9.80;1.27;;;8.40;99.90;;;;;;4995680;28;20052;-89
2023/12/23 10:39:27;;;;;;;5.85;1.48;;;8.50;99.90;;;;;;5011599;28;20073;-89
2023/12/23 10:42:00;;;;;;;7.07;1.38;;;8.50;99.90;;;;;;4995891;28;20447;-89
2023/12/23 10:44:27;;;;;;;5.20;1.10;;;8.60;99.90;;;;;;4994961;28;20564;-89
2023/12/23 10:46:54;;;;;;;15.27;3.53;;;8.70;99.90;;;;;;4995022;28;20041;-89
2023/12/23 10:49:23;;;;;;;8.30;1.58;;;8.90;99.90;;;;;;5011225;28;20500;-90
2023/12/23 10:51:50;;;;;;;6.97;1.38;;;9.10;99.90;;;;;;5029231;28;20112;-89
2023/12/23 10:54:17;;;;;;;8.20;2.28;;;9.20;99.90;;;;;;5011136;28;20073;-90
2023/12/23 10:56:45;;;;;;;5.07;1.33;;;9.30;99.90;;;;;;4995942;28;20045;-90
2023/12/23 10:59:11;;;;;;;7.95;1.58;;;9.40;99.90;;;;;;4994750;28;20048;-89
2023/12/23 11:01:39;;;;;;;12.65;1.48;;;9.60;99.90;;;;;;5011577;28;20037;-90
2023/12/23 11:04:05;;;;;;;7.40;1.10;;;9.60;99.90;;;;;;5011109;28;20455;-90
2023/12/23 11:06:36;;;;;;;8.68;1.65;;;9.70;99.90;;;;;;5011776;28;20120;-89
2023/12/23 11:09:04;;;;;;;5.95;1.73;;;9.70;99.90;;;;;;4995075;28;20394;-90
2023/12/23 11:11:31;;;;;;;8.77;1.90;;;9.80;99.90;;;;;;4994088;28;20021;-90
2023/12/23 11:13:57;;;;;;;3.83;1.05;;;9.80;99.90;;;;;;4994599;28;20124;-90
2023/12/23 11:16:23;;;;;;;5.55;1.25;;;9.90;99.90;;;;;;5028586;28;20037;-89
2023/12/23 11:18:52;;;;;;;6.82;1.67;;;9.90;99.90;;;;;;5010196;28;20144;-90
2023/12/23 11:21:18;;;;;;;6.28;0.98;;;9.90;99.90;;;;;;4995210;28;20862;-89
2023/12/23 11:23:44;;;;;;;8.38;1.33;;;9.90;99.90;;;;;;4994071;28;20038;-90
2023/12/23 11:26:39;;;;;;;2.90;1.17;;;10.00;99.90;;;;;;4994948;28;20132;-90
2023/12/23 11:29:09;;;;;;;2.88;0.80;;;10.00;99.90;;;;;;4994733;28;20120;-90
2023/12/23 11:31:34;;;;;;;9.52;0.93;;;10.00;99.90;;;;;;5011055;28;20033;-89
2023/12/23 11:34:01;;;;;;;3.63;1.00;;;10.10;99.90;;;;;;4994048;28;20034;-90
2023/12/23 11:36:26;;;;;;;4.70;1.50;;;10.10;99.90;;;;;;5008876;28;20056;-90
2023/12/23 11:38:53;;;;;;;5.03;1.35;;;10.10;99.90;;;;;;4993784;28;20041;-89
2023/12/23 11:41:20;;;;;;;6.97;1.20;;;10.10;99.90;;;;;;4994358;28;20044;-90
2023/12/23 11:43:47;;;;;;;5.18;1.00;;;10.10;99.90;;;;;;4992016;28;20056;-90
2023/12/23 11:46:14;;;;;;;3.90;0.68;;;10.10;99.90;;;;;;5009645;28;20033;-90
2023/12/23 11:48:40;;;;;;;5.10;0.95;;;10.10;99.90;;;;;;4994355;28;20037;-90
2023/12/23 11:51:06;;;;;;;5.95;1.30;;;10.10;99.90;;;;;;4993760;28;20519;-90
2023/12/23 11:53:33;;;;;;;7.65;1.20;;;10.20;99.90;;;;;;5028253;28;20052;-89
2023/12/23 11:55:59;;;;;;;7.38;1.50;;;10.10;99.90;;;;;;5009658;28;20045;-90
2023/12/23 11:58:25;;;;;;;19.02;4.28;;;10.10;99.90;;;;;;4994243;28;20168;-90
2023/12/23 12:00:52;;;;;;;6.82;1.52;;;10.20;99.90;;;;;;4993475;28;20460;-89
2023/12/23 12:03:18;;;;;;;3.13;1.10;;;10.10;99.90;;;;;;4988436;28;20592;-89
2023/12/23 12:05:43;;;;;;;4.30;0.73;;;10.10;99.90;;;;;;4994490;28;20488;-89
2023/12/23 12:08:09;;;;;;;6.70;2.30;;;10.10;99.90;;;;;;4995036;28;20040;-89
2023/12/23 12:10:35;;;;;;;12.27;1.40;;;10.10;99.90;;;;;;4994031;28;20036;-90
2023/12/23 12:13:02;;;;;;;11.45;1.77;;;10.10;99.90;;;;;;5010414;28;20060;-90
2023/12/23 12:15:27;;;;;;;8.43;1.50;;;10.20;99.90;;;;;;4994119;28;20051;-90
2023/12/23 12:17:53;;;;;;;11.38;1.85;;;10.30;99.90;;;;;;4994076;28;20041;-90
2023/12/23 12:20:19;;;;;;;7.90;3.45;;;10.30;99.90;;;;;;4994362;28;20069;-90
2023/12/23 12:22:46;;;;;;;7.15;1.15;;;10.40;99.90;;;;;;4994124;28;20042;-90
2023/12/23 12:25:12;;;;;;;8.30;2.15;;;10.40;99.90;;;;;;4994006;28;20519;-90
2023/12/23 12:27:39;;;;;;;13.18;0.88;;;10.40;99.90;;;;;;5011022;28;20041;-91
2023/12/23 12:30:10;;;;;;;5.63;1.35;;;10.50;99.90;;;;;;5009746;28;20029;-90
2023/12/23 12:32:47;;;;;;;7.32;1.40;;;10.50;99.90;;;;;;4994164;28;20111;-90
2023/12/23 12:35:13;;;;;;;8.27;1.73;;;10.50;99.90;;;;;;5007905;28;20141;-90
2023/12/23 12:37:40;;;;;;;11.90;1.65;;;10.50;99.90;;;;;;4990235;28;20049;-91
2023/12/23 12:40:11;;;;;;;7.35;1.40;;;10.50;99.90;;;;;;5007565;28;20099;-90
2023/12/23 12:42:38;;;;;;;10.25;2.03;;;10.50;99.90;;;;;;4990661;28;20042;-90
2023/12/23 12:45:05;;;;;;;18.23;2.03;;;10.50;99.90;;;;;;4994049;28;20041;-90
2023/12/23 12:47:31;;;;;;;12.07;1.80;;;10.50;99.90;;;;;;4993481;28;20038;-90
2023/12/23 12:50:03;;;;;;;11.45;1.55;;;10.50;99.90;;;;;;4994368;28;20045;-90